sensor_id;sensor_type;location;lat;lon;timestamp;temperature;humidity
44817;DHT22;30529;53.570;9.964;2023-02-07T00:01:21;0.60;99.90
44817;DHT22;30529;53.570;9.964;2023-02-07T00:03:47;0.60;99.90
44817;DHT22;30529;53.570;9.964;2023-02-07T00:06:23;0.60;99.90
44817;DHT22;30529;53.570;9.964;2023-02-07T00:08:49;0.60;99.90
44817;DHT22;30529;53.570;9.964;2023-02-07T00:11:17;0.50;99.90
44817;DHT22;30529;53.570;9.964;2023-02-07T00:13:46;0.50;99.90
44817;DHT22;30529;53.570;9.964;2023-02-07T00:16:12;0.50;99.90
44817;DHT22;30529;53.570;9.964;2023-02-07T00:18:39;0.50;99.90
44817;DHT22;30529;53.570;9.964;2023-02-07T00:21:08;0.50;99.90
44817;DHT22;30529;53.570;9.964;2023-02-07T00:23:35;0.50;99.90
44817;DHT22;30529;53.570;9.964;2023-02-07T00:26:02;0.50;99.90
44817;DHT22;30529;53.570;9.964;2023-02-07T00:28:28;0.40;99.90
44817;DHT22;30529;53.570;9.964;2023-02-07T00:31:17;0.40;99.90
44817;DHT22;30529;53.570;9.964;2023-02-07T00:33:45;0.40;99.90
44817;DHT22;30529;53.570;9.964;2023-02-07T00:36:15;0.40;99.90
44817;DHT22;30529;53.570;9.964;2023-02-07T00:38:41;0.50;99.90
44817;DHT22;30529;53.570;9.964;2023-02-07T00:41:08;0.50;99.90
44817;DHT22;30529;53.570;9.964;2023-02-07T00:43:34;0.50;99.90
44817;DHT22;30529;53.570;9.964;2023-02-07T00:46:02;0.40;99.90
44817;DHT22;30529;53.570;9.964;2023-02-07T00:48:29;0.40;99.90
44817;DHT22;30529;53.570;9.964;2023-02-07T00:50:56;0.40;99.90
44817;DHT22;30529;53.570;9.964;2023-02-07T00:53:23;0.40;99.90
44817;DHT22;30529;53.570;9.964;2023-02-07T00:55:49;0.40;99.90
44817;DHT22;30529;53.570;9.964;2023-02-07T00:58:15;0.40;99.90
44817;DHT22;30529;53.570;9.964;2023-02-07T01:00:41;0.40;99.90
44817;DHT22;30529;53.570;9.964;2023-02-07T01:03:07;0.30;99.90
44817;DHT22;30529;53.570;9.964;2023-02-07T01:05:33;0.30;99.90
44817;DHT22;30529;53.570;9.964;2023-02-07T01:07:59;0.30;99.90
44817;DHT22;30529;53.570;9.964;2023-02-07T01:10:25;0.30;99.90
44817;DHT22;30529;53.570;9.964;2023-02-07T01:12:51;0.30;99.90
44817;DHT22;30529;53.570;9.964;2023-02-07T01:15:18;0.30;99.90
44817;DHT22;30529;53.570;9.964;2023-02-07T01:17:44;0.30;99.90
44817;DHT22;30529;53.570;9.964;2023-02-07T01:20:11;0.30;99.90
44817;DHT22;30529;53.570;9.964;2023-02-07T01:22:38;0.30;99.90
44817;DHT22;30529;53.570;9.964;2023-02-07T01:25:09;0.30;99.90
44817;DHT22;30529;53.570;9.964;2023-02-07T01:27:35;0.30;99.90
44817;DHT22;30529;53.570;9.964;2023-02-07T01:30:02;0.20;99.90
44817;DHT22;30529;53.570;9.964;2023-02-07T01:32:31;0.20;99.90
44817;DHT22;30529;53.570;9.964;2023-02-07T01:34:57;0.20;99.90
44817;DHT22;30529;53.570;9.964;2023-02-07T01:37:23;0.20;99.90
44817;DHT22;30529;53.570;9.964;2023-02-07T01:39:49;0.20;99.90
44817;DHT22;30529;53.570;9.964;2023-02-07T01:42:16;0.20;99.90
44817;DHT22;30529;53.570;9.964;2023-02-07T01:47:18;0.20;99.90
44817;DHT22;30529;53.570;9.964;2023-02-07T01:49:45;0.20;99.90
44817;DHT22;30529;53.570;9.964;2023-02-07T01:52:18;0.20;99.90
44817;DHT22;30529;53.570;9.964;2023-02-07T01:54:49;0.20;99.90
44817;DHT22;30529;53.570;9.964;2023-02-07T01:57:18;0.20;99.90
44817;DHT22;30529;53.570;9.964;2023-02-07T01:59:46;0.10;99.90
44817;DHT22;30529;53.570;9.964;2023-02-07T02:02:15;0.10;99.90
44817;DHT22;30529;53.570;9.964;2023-02-07T02:04:42;0.10;99.90
44817;DHT22;30529;53.570;9.964;2023-02-07T02:07:09;0.10;99.90
44817;DHT22;30529;53.570;9.964;2023-02-07T02:09:36;0.10;99.90
44817;DHT22;30529;53.570;9.964;2023-02-07T02:12:24;0.10;99.90
44817;DHT22;30529;53.570;9.964;2023-02-07T02:23:14;0.10;99.90
44817;DHT22;30529;53.570;9.964;2023-02-07T02:25:55;0.10;99.90
44817;DHT22;30529;53.570;9.964;2023-02-07T02:34:31;0.00;99.90
44817;DHT22;30529;53.570;9.964;2023-02-07T02:45:24;0.00;99.90
44817;DHT22;30529;53.570;9.964;2023-02-07T02:47:53;-0.10;99.90
44817;DHT22;30529;53.570;9.964;2023-02-07T02:50:38;-0.10;99.90
44817;DHT22;30529;53.570;9.964;2023-02-07T02:53:05;-0.10;99.90
44817;DHT22;30529;53.570;9.964;2023-02-07T02:56:01;-0.10;99.90
44817;DHT22;30529;53.570;9.964;2023-02-07T02:58:40;-0.10;99.90
44817;DHT22;30529;53.570;9.964;2023-02-07T03:01:22;-0.10;99.90
44817;DHT22;30529;53.570;9.964;2023-02-07T03:04:26;-0.20;99.90
44817;DHT22;30529;53.570;9.964;2023-02-07T03:07:03;-0.10;99.90
44817;DHT22;30529;53.570;9.964;2023-02-07T03:09:51;-0.20;99.90
44817;DHT22;30529;53.570;9.964;2023-02-07T03:12:48;-0.20;99.90
44817;DHT22;30529;53.570;9.964;2023-02-07T03:17:57;-0.20;99.90
44817;DHT22;30529;53.570;9.964;2023-02-07T03:20:33;-0.20;99.90
44817;DHT22;30529;53.570;9.964;2023-02-07T03:23:03;-0.30;99.90
44817;DHT22;30529;53.570;9.964;2023-02-07T03:25:30;-0.30;99.90
44817;DHT22;30529;53.570;9.964;2023-02-07T03:27:57;-0.30;99.90
44817;DHT22;30529;53.570;9.964;2023-02-07T03:30:27;-0.40;99.90
44817;DHT22;30529;53.570;9.964;2023-02-07T03:32:58;-0.40;99.90
44817;DHT22;30529;53.570;9.964;2023-02-07T03:35:31;-0.40;99.90
44817;DHT22;30529;53.570;9.964;2023-02-07T03:38:01;-0.40;99.90
44817;DHT22;30529;53.570;9.964;2023-02-07T03:40:31;-0.50;99.90
44817;DHT22;30529;53.570;9.964;2023-02-07T03:43:06;-0.50;99.90
44817;DHT22;30529;53.570;9.964;2023-02-07T03:45:33;-0.50;99.90
44817;DHT22;30529;53.570;9.964;2023-02-07T03:47:59;-0.50;99.90
44817;DHT22;30529;53.570;9.964;2023-02-07T03:50:25;-0.50;99.90
44817;DHT22;30529;53.570;9.964;2023-02-07T03:52:51;-0.50;99.90
44817;DHT22;30529;53.570;9.964;2023-02-07T03:55:17;-0.50;99.90
44817;DHT22;30529;53.570;9.964;2023-02-07T03:57:43;-0.50;99.90
44817;DHT22;30529;53.570;9.964;2023-02-07T04:00:10;-0.60;99.90
44817;DHT22;30529;53.570;9.964;2023-02-07T04:02:36;-0.60;99.90
44817;DHT22;30529;53.570;9.964;2023-02-07T04:05:02;-0.60;99.90
44817;DHT22;30529;53.570;9.964;2023-02-07T04:07:29;-0.60;99.90
44817;DHT22;30529;53.570;9.964;2023-02-07T04:09:55;-0.60;99.90
44817;DHT22;30529;53.570;9.964;2023-02-07T04:12:21;-0.60;99.90
44817;DHT22;30529;53.570;9.964;2023-02-07T04:14:47;-0.60;99.90
44817;DHT22;30529;53.570;9.964;2023-02-07T04:17:13;-0.70;99.90
44817;DHT22;30529;53.570;9.964;2023-02-07T04:19:39;-0.70;99.90
44817;DHT22;30529;53.570;9.964;2023-02-07T04:22:05;-0.70;99.90
44817;DHT22;30529;53.570;9.964;2023-02-07T04:24:31;-0.70;99.90
44817;DHT22;30529;53.570;9.964;2023-02-07T04:26:58;-0.70;99.90
44817;DHT22;30529;53.570;9.964;2023-02-07T04:29:24;-0.70;99.90
44817;DHT22;30529;53.570;9.964;2023-02-07T04:31:50;-0.70;99.90
44817;DHT22;30529;53.570;9.964;2023-02-07T04:34:16;-0.70;99.90
44817;DHT22;30529;53.570;9.964;2023-02-07T04:36:42;-0.80;99.90
44817;DHT22;30529;53.570;9.964;2023-02-07T04:39:08;-0.80;99.90
44817;DHT22;30529;53.570;9.964;2023-02-07T04:41:34;-0.80;99.90
44817;DHT22;30529;53.570;9.964;2023-02-07T04:44:00;-0.80;99.90
44817;DHT22;30529;53.570;9.964;2023-02-07T04:46:26;-0.80;99.90
44817;DHT22;30529;53.570;9.964;2023-02-07T04:48:53;-0.80;99.90
44817;DHT22;30529;53.570;9.964;2023-02-07T04:51:19;-0.90;99.90
44817;DHT22;30529;53.570;9.964;2023-02-07T04:53:45;-0.90;99.90
44817;DHT22;30529;53.570;9.964;2023-02-07T04:56:11;-0.90;99.90
44817;DHT22;30529;53.570;9.964;2023-02-07T04:58:37;-0.90;99.90
44817;DHT22;30529;53.570;9.964;2023-02-07T05:01:03;-0.90;99.90
44817;DHT22;30529;53.570;9.964;2023-02-07T05:03:29;-0.90;99.90
44817;DHT22;30529;53.570;9.964;2023-02-07T05:05:55;-0.90;99.90
44817;DHT22;30529;53.570;9.964;2023-02-07T05:08:21;-0.80;99.90
44817;DHT22;30529;53.570;9.964;2023-02-07T05:10:52;-0.90;99.90
44817;DHT22;30529;53.570;9.964;2023-02-07T05:13:19;-0.90;99.90
44817;DHT22;30529;53.570;9.964;2023-02-07T05:15:45;-0.90;99.90
44817;DHT22;30529;53.570;9.964;2023-02-07T05:18:11;-0.90;99.90
44817;DHT22;30529;53.570;9.964;2023-02-07T05:20:37;-0.90;99.90
44817;DHT22;30529;53.570;9.964;2023-02-07T05:23:03;-0.90;99.90
44817;DHT22;30529;53.570;9.964;2023-02-07T05:25:29;-0.90;99.90
44817;DHT22;30529;53.570;9.964;2023-02-07T05:27:55;-0.90;99.90
44817;DHT22;30529;53.570;9.964;2023-02-07T05:30:21;-1.00;99.90
44817;DHT22;30529;53.570;9.964;2023-02-07T05:32:47;-0.90;99.90
44817;DHT22;30529;53.570;9.964;2023-02-07T05:35:39;-0.90;99.90
44817;DHT22;30529;53.570;9.964;2023-02-07T05:38:16;-0.90;99.90
44817;DHT22;30529;53.570;9.964;2023-02-07T05:40:43;-1.00;99.90
44817;DHT22;30529;53.570;9.964;2023-02-07T05:43:10;-1.00;99.90
44817;DHT22;30529;53.570;9.964;2023-02-07T05:45:37;-1.00;99.90
44817;DHT22;30529;53.570;9.964;2023-02-07T05:48:03;-1.00;99.90
44817;DHT22;30529;53.570;9.964;2023-02-07T05:50:30;-1.00;99.90
44817;DHT22;30529;53.570;9.964;2023-02-07T05:52:56;-1.00;99.90
44817;DHT22;30529;53.570;9.964;2023-02-07T05:55:22;-1.00;99.90
44817;DHT22;30529;53.570;9.964;2023-02-07T05:57:48;-1.00;99.90
44817;DHT22;30529;53.570;9.964;2023-02-07T06:00:16;-1.00;99.90
44817;DHT22;30529;53.570;9.964;2023-02-07T06:02:43;-0.90;99.90
44817;DHT22;30529;53.570;9.964;2023-02-07T06:05:11;-0.90;99.90
44817;DHT22;30529;53.570;9.964;2023-02-07T06:07:38;-0.90;99.90
44817;DHT22;30529;53.570;9.964;2023-02-07T06:10:05;-0.90;99.90
44817;DHT22;30529;53.570;9.964;2023-02-07T06:12:32;-0.90;99.90
44817;DHT22;30529;53.570;9.964;2023-02-07T06:14:59;-0.90;99.90
44817;DHT22;30529;53.570;9.964;2023-02-07T06:17:25;-0.90;99.90
44817;DHT22;30529;53.570;9.964;2023-02-07T06:19:52;-1.00;99.90
44817;DHT22;30529;53.570;9.964;2023-02-07T06:22:18;-1.00;99.90
44817;DHT22;30529;53.570;9.964;2023-02-07T06:24:44;-1.00;99.90
44817;DHT22;30529;53.570;9.964;2023-02-07T06:27:10;-1.00;99.90
44817;DHT22;30529;53.570;9.964;2023-02-07T06:29:36;-1.10;99.90
44817;DHT22;30529;53.570;9.964;2023-02-07T06:32:02;-1.00;99.90
44817;DHT22;30529;53.570;9.964;2023-02-07T06:34:28;-1.00;99.90
44817;DHT22;30529;53.570;9.964;2023-02-07T06:36:54;-1.00;99.90
44817;DHT22;30529;53.570;9.964;2023-02-07T06:39:20;-1.00;99.90
44817;DHT22;30529;53.570;9.964;2023-02-07T06:41:47;-1.00;99.90
44817;DHT22;30529;53.570;9.964;2023-02-07T06:44:13;-1.00;99.90
44817;DHT22;30529;53.570;9.964;2023-02-07T06:46:39;-1.00;99.90
44817;DHT22;30529;53.570;9.964;2023-02-07T06:49:05;-1.00;99.90
44817;DHT22;30529;53.570;9.964;2023-02-07T06:51:31;-0.90;99.90
44817;DHT22;30529;53.570;9.964;2023-02-07T06:53:57;-0.90;99.90
44817;DHT22;30529;53.570;9.964;2023-02-07T06:56:24;-1.00;99.90
44817;DHT22;30529;53.570;9.964;2023-02-07T06:58:50;-0.90;99.90
44817;DHT22;30529;53.570;9.964;2023-02-07T07:01:16;-0.90;99.90
44817;DHT22;30529;53.570;9.964;2023-02-07T07:03:45;-0.90;99.90
44817;DHT22;30529;53.570;9.964;2023-02-07T07:06:11;-0.90;99.90
44817;DHT22;30529;53.570;9.964;2023-02-07T07:08:38;-0.90;99.90
44817;DHT22;30529;53.570;9.964;2023-02-07T07:11:04;-0.80;99.90
44817;DHT22;30529;53.570;9.964;2023-02-07T07:13:30;-0.80;99.90
44817;DHT22;30529;53.570;9.964;2023-02-07T07:15:56;-0.80;99.90
44817;DHT22;30529;53.570;9.964;2023-02-07T07:18:22;-0.80;99.90
44817;DHT22;30529;53.570;9.964;2023-02-07T07:20:55;-0.80;99.90
44817;DHT22;30529;53.570;9.964;2023-02-07T07:23:22;-0.80;99.90
44817;DHT22;30529;53.570;9.964;2023-02-07T07:25:48;-0.70;99.90
44817;DHT22;30529;53.570;9.964;2023-02-07T07:28:14;-0.70;99.90
44817;DHT22;30529;53.570;9.964;2023-02-07T07:30:40;-0.70;99.90
44817;DHT22;30529;53.570;9.964;2023-02-07T07:33:06;-0.60;99.90
44817;DHT22;30529;53.570;9.964;2023-02-07T07:35:33;-0.60;99.90
44817;DHT22;30529;53.570;9.964;2023-02-07T07:37:59;-0.60;99.90
44817;DHT22;30529;53.570;9.964;2023-02-07T07:40:25;-0.50;99.90
44817;DHT22;30529;53.570;9.964;2023-02-07T07:42:51;-0.40;99.90
44817;DHT22;30529;53.570;9.964;2023-02-07T07:45:17;-0.40;99.90
44817;DHT22;30529;53.570;9.964;2023-02-07T07:47:43;-0.40;99.90
44817;DHT22;30529;53.570;9.964;2023-02-07T07:50:09;-0.40;99.90
44817;DHT22;30529;53.570;9.964;2023-02-07T07:52:35;-0.40;99.90
44817;DHT22;30529;53.570;9.964;2023-02-07T07:55:01;-0.40;99.90
44817;DHT22;30529;53.570;9.964;2023-02-07T07:57:27;-0.40;99.90
44817;DHT22;30529;53.570;9.964;2023-02-07T07:59:54;-0.40;99.90
44817;DHT22;30529;53.570;9.964;2023-02-07T08:02:20;-0.40;99.90
44817;DHT22;30529;53.570;9.964;2023-02-07T08:04:46;-0.30;99.90
44817;DHT22;30529;53.570;9.964;2023-02-07T08:07:12;-0.20;99.90
44817;DHT22;30529;53.570;9.964;2023-02-07T08:09:38;-0.20;99.90
44817;DHT22;30529;53.570;9.964;2023-02-07T08:12:04;-0.10;99.90
44817;DHT22;30529;53.570;9.964;2023-02-07T08:14:30;-0.10;99.90
44817;DHT22;30529;53.570;9.964;2023-02-07T08:16:56;-0.10;99.90
44817;DHT22;30529;53.570;9.964;2023-02-07T08:19:22;-0.10;99.90
44817;DHT22;30529;53.570;9.964;2023-02-07T08:21:48;0.00;99.90
44817;DHT22;30529;53.570;9.964;2023-02-07T08:24:14;0.00;99.90
44817;DHT22;30529;53.570;9.964;2023-02-07T08:26:41;0.10;99.90
44817;DHT22;30529;53.570;9.964;2023-02-07T08:29:07;0.10;99.90
44817;DHT22;30529;53.570;9.964;2023-02-07T08:31:33;0.10;99.90
44817;DHT22;30529;53.570;9.964;2023-02-07T08:33:59;0.10;99.90
44817;DHT22;30529;53.570;9.964;2023-02-07T08:36:25;0.00;99.90
44817;DHT22;30529;53.570;9.964;2023-02-07T08:38:51;0.10;99.90
44817;DHT22;30529;53.570;9.964;2023-02-07T08:41:17;0.10;99.90
44817;DHT22;30529;53.570;9.964;2023-02-07T08:43:43;0.10;99.90
44817;DHT22;30529;53.570;9.964;2023-02-07T08:46:09;0.20;99.90
44817;DHT22;30529;53.570;9.964;2023-02-07T08:48:35;0.20;99.90
44817;DHT22;30529;53.570;9.964;2023-02-07T08:51:06;0.20;99.90
44817;DHT22;30529;53.570;9.964;2023-02-07T08:53:32;0.20;99.90
44817;DHT22;30529;53.570;9.964;2023-02-07T08:55:58;0.20;99.90
44817;DHT22;30529;53.570;9.964;2023-02-07T08:58:25;0.20;99.90
44817;DHT22;30529;53.570;9.964;2023-02-07T09:00:51;0.20;99.90
44817;DHT22;30529;53.570;9.964;2023-02-07T09:03:17;0.20;99.90
44817;DHT22;30529;53.570;9.964;2023-02-07T09:05:43;0.30;99.90
44817;DHT22;30529;53.570;9.964;2023-02-07T09:08:09;0.30;99.90
44817;DHT22;30529;53.570;9.964;2023-02-07T09:10:35;0.30;99.90
44817;DHT22;30529;53.570;9.964;2023-02-07T09:13:03;0.30;99.90
44817;DHT22;30529;53.570;9.964;2023-02-07T09:15:29;0.30;99.90
44817;DHT22;30529;53.570;9.964;2023-02-07T09:17:55;0.30;99.90
44817;DHT22;30529;53.570;9.964;2023-02-07T09:20:21;0.40;99.90
44817;DHT22;30529;53.570;9.964;2023-02-07T09:22:47;0.40;99.90
44817;DHT22;30529;53.570;9.964;2023-02-07T09:25:32;0.40;99.90
44817;DHT22;30529;53.570;9.964;2023-02-07T09:27:58;0.50;99.90
44817;DHT22;30529;53.570;9.964;2023-02-07T09:30:24;0.50;99.90
44817;DHT22;30529;53.570;9.964;2023-02-07T09:32:50;0.50;99.90
44817;DHT22;30529;53.570;9.964;2023-02-07T09:35:16;0.50;99.90
44817;DHT22;30529;53.570;9.964;2023-02-07T09:37:42;0.60;99.90
44817;DHT22;30529;53.570;9.964;2023-02-07T09:40:15;0.60;99.90
44817;DHT22;30529;53.570;9.964;2023-02-07T09:42:56;0.50;99.90
44817;DHT22;30529;53.570;9.964;2023-02-07T09:45:27;0.60;99.90
44817;DHT22;30529;53.570;9.964;2023-02-07T09:48:03;0.60;99.90
44817;DHT22;30529;53.570;9.964;2023-02-07T09:50:35;0.60;99.90
44817;DHT22;30529;53.570;9.964;2023-02-07T09:53:12;0.60;99.90
44817;DHT22;30529;53.570;9.964;2023-02-07T09:55:52;0.60;99.90
44817;DHT22;30529;53.570;9.964;2023-02-07T10:01:03;0.60;99.90
44817;DHT22;30529;53.570;9.964;2023-02-07T10:03:31;0.70;99.90
44817;DHT22;30529;53.570;9.964;2023-02-07T10:08:29;0.70;99.90
44817;DHT22;30529;53.570;9.964;2023-02-07T10:17:03;0.60;99.90
44817;DHT22;30529;53.570;9.964;2023-02-07T10:25:10;0.70;99.90
44817;DHT22;30529;53.570;9.964;2023-02-07T10:30:39;0.80;99.90
44817;DHT22;30529;53.570;9.964;2023-02-07T10:35:45;0.80;99.90
44817;DHT22;30529;53.570;9.964;2023-02-07T10:38:42;0.80;99.90
44817;DHT22;30529;53.570;9.964;2023-02-07T10:41:34;0.80;99.90
44817;DHT22;30529;53.570;9.964;2023-02-07T10:44:10;0.90;99.90
44817;DHT22;30529;53.570;9.964;2023-02-07T10:46:40;0.80;99.90
44817;DHT22;30529;53.570;9.964;2023-02-07T10:49:23;0.80;99.90
44817;DHT22;30529;53.570;9.964;2023-02-07T10:51:50;0.70;99.90
44817;DHT22;30529;53.570;9.964;2023-02-07T10:54:19;0.70;99.90
44817;DHT22;30529;53.570;9.964;2023-02-07T10:56:48;0.80;99.90
44817;DHT22;30529;53.570;9.964;2023-02-07T11:01:56;0.80;99.90
44817;DHT22;30529;53.570;9.964;2023-02-07T11:04:32;0.80;99.90
44817;DHT22;30529;53.570;9.964;2023-02-07T11:07:01;0.90;99.90
44817;DHT22;30529;53.570;9.964;2023-02-07T11:09:27;0.90;99.90
44817;DHT22;30529;53.570;9.964;2023-02-07T11:11:53;0.90;99.90
44817;DHT22;30529;53.570;9.964;2023-02-07T11:14:23;1.00;99.90
44817;DHT22;30529;53.570;9.964;2023-02-07T11:16:59;1.00;99.90
44817;DHT22;30529;53.570;9.964;2023-02-07T11:19:28;1.00;99.90
44817;DHT22;30529;53.570;9.964;2023-02-07T11:22:18;1.10;99.90
44817;DHT22;30529;53.570;9.964;2023-02-07T11:24:46;1.10;99.90
44817;DHT22;30529;53.570;9.964;2023-02-07T11:27:16;1.10;99.90
44817;DHT22;30529;53.570;9.964;2023-02-07T11:32:15;1.10;99.90
44817;DHT22;30529;53.570;9.964;2023-02-07T11:34:56;1.10;99.90
44817;DHT22;30529;53.570;9.964;2023-02-07T11:37:37;1.10;99.90
44817;DHT22;30529;53.570;9.964;2023-02-07T11:40:43;1.10;99.90
44817;DHT22;30529;53.570;9.964;2023-02-07T11:43:12;1.20;99.90
44817;DHT22;30529;53.570;9.964;2023-02-07T11:45:46;1.20;99.90
44817;DHT22;30529;53.570;9.964;2023-02-07T11:48:23;1.30;99.90
44817;DHT22;30529;53.570;9.964;2023-02-07T11:50:55;1.30;99.90
44817;DHT22;30529;53.570;9.964;2023-02-07T11:53:24;1.30;99.90
44817;DHT22;30529;53.570;9.964;2023-02-07T11:55:53;1.30;99.90
44817;DHT22;30529;53.570;9.964;2023-02-07T11:58:41;1.30;99.90
44817;DHT22;30529;53.570;9.964;2023-02-07T12:01:18;1.30;99.90
44817;DHT22;30529;53.570;9.964;2023-02-07T12:03:53;1.40;99.90
44817;DHT22;30529;53.570;9.964;2023-02-07T12:09:32;1.40;99.90
44817;DHT22;30529;53.570;9.964;2023-02-07T12:12:05;1.30;99.90
44817;DHT22;30529;53.570;9.964;2023-02-07T12:14:40;1.30;99.90
44817;DHT22;30529;53.570;9.964;2023-02-07T12:17:15;1.40;99.90
44817;DHT22;30529;53.570;9.964;2023-02-07T12:20:15;1.40;99.90
44817;DHT22;30529;53.570;9.964;2023-02-07T12:22:48;1.40;99.90
44817;DHT22;30529;53.570;9.964;2023-02-07T12:25:20;1.30;99.90
44817;DHT22;30529;53.570;9.964;2023-02-07T12:27:50;1.20;99.90
44817;DHT22;30529;53.570;9.964;2023-02-07T12:33:21;1.20;99.90
44817;DHT22;30529;53.570;9.964;2023-02-07T12:38:47;1.20;99.90
44817;DHT22;30529;53.570;9.964;2023-02-07T12:41:26;1.20;99.90
44817;DHT22;30529;53.570;9.964;2023-02-07T12:44:37;1.20;99.90
44817;DHT22;30529;53.570;9.964;2023-02-07T12:52:37;1.30;99.90
44817;DHT22;30529;53.570;9.964;2023-02-07T12:55:17;1.30;99.90
44817;DHT22;30529;53.570;9.964;2023-02-07T12:58:00;1.30;99.90
44817;DHT22;30529;53.570;9.964;2023-02-07T13:00:37;1.40;99.90
44817;DHT22;30529;53.570;9.964;2023-02-07T13:03:51;1.50;99.90
44817;DHT22;30529;53.570;9.964;2023-02-07T13:09:47;1.60;99.90
44817;DHT22;30529;53.570;9.964;2023-02-07T13:15:39;1.70;99.90
44817;DHT22;30529;53.570;9.964;2023-02-07T13:18:24;1.80;99.90
44817;DHT22;30529;53.570;9.964;2023-02-07T13:23:32;1.80;99.90
44817;DHT22;30529;53.570;9.964;2023-02-07T13:26:04;1.80;99.90
44817;DHT22;30529;53.570;9.964;2023-02-07T13:31:20;1.90;99.90
44817;DHT22;30529;53.570;9.964;2023-02-07T13:33:51;1.80;99.90
44817;DHT22;30529;53.570;9.964;2023-02-07T13:36:45;1.90;99.90
44817;DHT22;30529;53.570;9.964;2023-02-07T13:39:47;1.90;99.90
44817;DHT22;30529;53.570;9.964;2023-02-07T13:42:25;1.80;99.90
44817;DHT22;30529;53.570;9.964;2023-02-07T13:50:24;1.90;99.90
44817;DHT22;30529;53.570;9.964;2023-02-07T13:55:34;2.00;99.90
44817;DHT22;30529;53.570;9.964;2023-02-07T14:01:27;2.00;99.90
44817;DHT22;30529;53.570;9.964;2023-02-07T14:04:13;2.10;99.90
44817;DHT22;30529;53.570;9.964;2023-02-07T14:07:03;2.00;99.90
44817;DHT22;30529;53.570;9.964;2023-02-07T14:09:39;2.00;99.90
44817;DHT22;30529;53.570;9.964;2023-02-07T14:12:27;2.00;99.90
44817;DHT22;30529;53.570;9.964;2023-02-07T14:14:55;2.00;99.90
44817;DHT22;30529;53.570;9.964;2023-02-07T14:23:14;2.00;99.90
44817;DHT22;30529;53.570;9.964;2023-02-07T14:25:42;1.90;99.90
44817;DHT22;30529;53.570;9.964;2023-02-07T14:28:38;2.00;99.90
44817;DHT22;30529;53.570;9.964;2023-02-07T14:31:21;2.00;99.90
44817;DHT22;30529;53.570;9.964;2023-02-07T14:34:10;2.00;99.90
44817;DHT22;30529;53.570;9.964;2023-02-07T14:36:38;2.00;99.90
44817;DHT22;30529;53.570;9.964;2023-02-07T14:41:44;2.00;99.90
44817;DHT22;30529;53.570;9.964;2023-02-07T14:46:52;2.10;99.90
44817;DHT22;30529;53.570;9.964;2023-02-07T14:49:31;2.10;99.90
44817;DHT22;30529;53.570;9.964;2023-02-07T14:52:02;2.10;99.90
44817;DHT22;30529;53.570;9.964;2023-02-07T14:54:47;2.10;99.90
44817;DHT22;30529;53.570;9.964;2023-02-07T14:57:36;2.10;99.90
44817;DHT22;30529;53.570;9.964;2023-02-07T15:00:09;2.10;99.90
44817;DHT22;30529;53.570;9.964;2023-02-07T15:02:42;2.10;99.90
44817;DHT22;30529;53.570;9.964;2023-02-07T15:05:31;2.10;99.90
44817;DHT22;30529;53.570;9.964;2023-02-07T15:11:11;2.10;99.90
44817;DHT22;30529;53.570;9.964;2023-02-07T15:13:44;2.10;99.90
44817;DHT22;30529;53.570;9.964;2023-02-07T15:16:17;2.10;99.90
44817;DHT22;30529;53.570;9.964;2023-02-07T15:18:46;2.10;99.90
44817;DHT22;30529;53.570;9.964;2023-02-07T15:21:19;2.10;99.90
44817;DHT22;30529;53.570;9.964;2023-02-07T15:23:56;2.10;99.90
44817;DHT22;30529;53.570;9.964;2023-02-07T15:26:22;2.10;99.90
44817;DHT22;30529;53.570;9.964;2023-02-07T15:29:00;2.10;99.90
44817;DHT22;30529;53.570;9.964;2023-02-07T15:31:26;2.00;99.90
44817;DHT22;30529;53.570;9.964;2023-02-07T15:33:56;2.00;99.90
44817;DHT22;30529;53.570;9.964;2023-02-07T15:36:34;2.00;99.90
44817;DHT22;30529;53.570;9.964;2023-02-07T15:39:03;2.00;99.90
44817;DHT22;30529;53.570;9.964;2023-02-07T15:41:31;1.90;99.90
44817;DHT22;30529;53.570;9.964;2023-02-07T15:47:01;1.90;99.90
44817;DHT22;30529;53.570;9.964;2023-02-07T15:49:32;1.90;99.90
44817;DHT22;30529;53.570;9.964;2023-02-07T15:54:36;1.80;99.90
44817;DHT22;30529;53.570;9.964;2023-02-07T15:57:02;1.80;99.90
44817;DHT22;30529;53.570;9.964;2023-02-07T15:59:30;1.80;99.90
44817;DHT22;30529;53.570;9.964;2023-02-07T16:01:59;1.80;99.90
44817;DHT22;30529;53.570;9.964;2023-02-07T16:04:28;1.80;99.90
44817;DHT22;30529;53.570;9.964;2023-02-07T16:07:02;1.70;99.90
44817;DHT22;30529;53.570;9.964;2023-02-07T16:11:59;1.70;99.90
44817;DHT22;30529;53.570;9.964;2023-02-07T16:14:25;1.70;99.90
44817;DHT22;30529;53.570;9.964;2023-02-07T16:16:57;1.60;99.90
44817;DHT22;30529;53.570;9.964;2023-02-07T16:19:28;1.60;99.90
44817;DHT22;30529;53.570;9.964;2023-02-07T16:24:30;1.60;99.90
44817;DHT22;30529;53.570;9.964;2023-02-07T16:26:58;1.60;99.90
44817;DHT22;30529;53.570;9.964;2023-02-07T16:29:25;1.50;99.90
44817;DHT22;30529;53.570;9.964;2023-02-07T16:31:54;1.50;99.90
44817;DHT22;30529;53.570;9.964;2023-02-07T16:34:21;1.50;99.90
44817;DHT22;30529;53.570;9.964;2023-02-07T16:36:52;1.50;99.90
44817;DHT22;30529;53.570;9.964;2023-02-07T16:39:19;1.50;99.90
44817;DHT22;30529;53.570;9.964;2023-02-07T16:41:48;1.40;99.90
44817;DHT22;30529;53.570;9.964;2023-02-07T16:44:24;1.40;99.90
44817;DHT22;30529;53.570;9.964;2023-02-07T16:46:51;1.40;99.90
44817;DHT22;30529;53.570;9.964;2023-02-07T16:49:20;1.40;99.90
44817;DHT22;30529;53.570;9.964;2023-02-07T16:51:46;1.40;99.90
44817;DHT22;30529;53.570;9.964;2023-02-07T16:54:12;1.30;99.90
44817;DHT22;30529;53.570;9.964;2023-02-07T16:56:41;1.30;99.90
44817;DHT22;30529;53.570;9.964;2023-02-07T16:59:12;1.30;99.90
44817;DHT22;30529;53.570;9.964;2023-02-07T17:01:39;1.30;99.90
44817;DHT22;30529;53.570;9.964;2023-02-07T17:04:05;1.30;99.90
44817;DHT22;30529;53.570;9.964;2023-02-07T17:06:31;1.30;99.90
44817;DHT22;30529;53.570;9.964;2023-02-07T17:08:57;1.30;99.90
44817;DHT22;30529;53.570;9.964;2023-02-07T17:11:24;1.30;99.90
44817;DHT22;30529;53.570;9.964;2023-02-07T17:14:00;1.30;99.90
44817;DHT22;30529;53.570;9.964;2023-02-07T17:16:35;1.30;99.90
44817;DHT22;30529;53.570;9.964;2023-02-07T17:19:16;1.30;99.90
44817;DHT22;30529;53.570;9.964;2023-02-07T17:21:53;1.30;99.90
44817;DHT22;30529;53.570;9.964;2023-02-07T17:24:23;1.30;99.90
44817;DHT22;30529;53.570;9.964;2023-02-07T17:27:04;1.30;99.90
44817;DHT22;30529;53.570;9.964;2023-02-07T17:29:50;1.30;99.90
44817;DHT22;30529;53.570;9.964;2023-02-07T17:32:20;1.30;99.90
44817;DHT22;30529;53.570;9.964;2023-02-07T17:34:46;1.20;99.90
44817;DHT22;30529;53.570;9.964;2023-02-07T17:37:14;1.20;99.90
44817;DHT22;30529;53.570;9.964;2023-02-07T17:39:46;1.20;99.90
44817;DHT22;30529;53.570;9.964;2023-02-07T17:42:17;1.20;99.90
44817;DHT22;30529;53.570;9.964;2023-02-07T17:48:54;1.20;99.90
44817;DHT22;30529;53.570;9.964;2023-02-07T18:14:34;1.10;99.90
44817;DHT22;30529;53.570;9.964;2023-02-07T18:25:28;1.10;99.90
44817;DHT22;30529;53.570;9.964;2023-02-07T18:31:25;1.10;99.90
44817;DHT22;30529;53.570;9.964;2023-02-07T18:33:56;1.10;99.90
44817;DHT22;30529;53.570;9.964;2023-02-07T18:36:33;1.10;99.90
44817;DHT22;30529;53.570;9.964;2023-02-07T18:39:54;1.00;99.90